Tiempo atmosférico en la estación meteorológica de Santillana del Mar, Altamira, Cantabria (150 m.)



Fecha
DESCASC
Temp. máxima en grados centígrados (hora)
DESCASC
Temp. mínima en grados centígrados (hora)
DESCASC
Temp. media en grados centígrados
DESCASC
Racha de viento máxima en m/sg (hora)
DESCASC
Velocidad máxima media en intervalos de 10 minutos(hora)
DESCASC
Precipitaciones diarias en mm
DESCASC
Precipitaciones de 00:00 a 06:00 en mm
DESCASC
Precipitaciones de 06:00 a 12:00 en mm
DESCASC
Precipitaciones de 12:00 a 18:00 en mm
DESCASC
Precipitaciones de 18:00 a 24:00 en mm
DESCASC
11-12-2019 12.7 (15:30) 8.3 (09:20) 10.5 15.83 (19:40) 6.94 (19:20) 12.6 2.4 9.2 0 1
10-12-2019 15.4 (15:20) 4.9 (07:40) 10.1 5.83 (09:00) 3.61 (09:40) 0 0 0 0 0
09-12-2019 13.4 (13:50) 8.4 (03:40) 10.9 13.33 (10:20) 5.83 (15:20) 1.8 0 0 0 1.8
08-12-2019 13.4 (14:50) 8.8 (00:00) 11.1 12.5 (15:10) 6.39 (15:10) 6 0 0.4 5.6 0
07-12-2019 16.6 (16:20) 6.6 (00:00) 11.6 5 (04:50) 3.33 (10:40) 0 0 0 0 0
06-12-2019 12 (12:40) 4.6 (00:00) 8.3 5 (06:10) 3.33 (03:00) 0 0 0 0 0
05-12-2019 12.1 (14:30) 7.5 (00:00) 9.8 7.5 (01:50) 4.17 (02:10) 4.2 3.8 0.4 0 0
04-12-2019 11.8 (14:00) 2.1 (00:00) 7 7.5 (22:40) 4.44 (02:10) 1.8 0 0 0 1.8
03-12-2019 10.4 (12:00) 2.3 (00:00) 6.3 5.28 (03:10) 2.78 (13:20) 0 0 0 0 0
02-12-2019 10.2 (12:00) 7.1 (00:00) 8.6 9.72 (10:20) 5.28 (10:00) 16.6 15.8 0.8 0 0
01-12-2019 14.2 (13:50) 6 (00:00) 10.1 10 (19:20) 6.39 (20:50) 14.4 0 0 4.8 9.6
30-11-2019 15.4 (07:20) 7.1 (00:00) 11.2 12.22 (09:30) 5.83 (09:30) 11.4 0 7.4 3.8 0.2
29-11-2019 16.4 (12:10) 8.6 (00:00) 12.5 5.28 (00:10) 3.33 (00:10) 0.4 0.4 0 0 0
28-11-2019 13.3 (14:30) 9 (00:00) 11.2 5.56 (22:10) 3.33 (18:00) 7.6 0.8 0.6 3.8 2.4
27-11-2019 14 (14:40) 7.9 (00:00) 11 6.67 (17:40) 3.61 (00:50) 1.1 0 0 0.3 0.8
26-11-2019 20.1 (19:10) 10 (00:00) 15.1 15.56 (20:20) 7.5 (20:20) 1.8 0 0 0 1.8
25-11-2019 16.7 (11:40) 10.7 (00:00) 13.7 7.78 (04:40) 4.17 (04:50) 0 0 0 0 0
24-11-2019 14 (15:50) 9.3 (00:00) 11.7 7.78 (01:20) 5.28 (20:10) 2 0.8 0.2 0 1
23-11-2019 12.3 (00:00) 9 (00:00) 10.7 21.11 (06:10) 8.89 (07:50) 37 15.6 12 7 2.4
22-11-2019 17.6 (14:40) 8.2 (00:00) 12.9 20 (13:10) 13.61 (11:20) 0.8 0 0.2 0.6 0
21-11-2019 15.1 (14:20) 7.3 (00:00) 11.2 3.89 (04:40) 2.78 (04:50) 0.2 0 0.2 0 0
20-11-2019 12.9 (12:10) 5.4 (00:00) 9.1 6.67 (13:10) 4.17 (13:10) 0 0 0 0 0
19-11-2019 12.6 (14:50) 4.5 (00:00) 8.6 6.11 (12:40) 3.89 (12:10) 0.2 0 0.2 0 0
18-11-2019 10.9 (14:50) 7.1 (00:00) 9 11.94 (03:20) 6.11 (03:30) 11 8.2 2.8 0 0
17-11-2019 13 (12:20) 6.9 (00:00) 10 15.28 (13:30) 5.83 (23:30) 42.6 4.4 5.2 0.8 32.2
16-11-2019 11.4 (13:10) 4.5 (00:00) 7.9 12.22 (13:20) 5 (11:30) 5 0.6 2.2 2.2 0
15-11-2019 -- (--) -- (--) -- -- (--) -- (--) -- -- -- 12.8 11

Gráficas

Temp. máximas Temp. mínimas Temp. medias Precipitaciones Rachas de viento máximas Velocidades máximas media en intervalos de 10 minutos

Datos horarios

Fecha y hora oficial Temperatura (ºC) Velocidad del viento (km/h) Dirección del viento Racha (km/h) Dirección de racha Precipitación (mm) Presión (hPa) Tendencia (hPa) Humedad (%)
2019-12-14 23:00:00 13.3 15 Sur 22 Sur 0 -- -- 67
2019-12-14 22:00:00 12.9 15 Sur 22 Sur 0 -- -- 72
2019-12-14 21:00:00 12.2 9 Sur 15 Sur 0 -- -- 74
2019-12-14 20:00:00 13.3 0 Calma 4 Norte 0 -- -- 64
2019-12-14 19:00:00 13.4 4 Norte 8 Norte 0 -- -- 65
2019-12-14 18:00:00 14 5 Sudoeste 11 Sudeste 0 -- -- 67
2019-12-14 17:00:00 15 5 Sur 14 Sur 0 -- -- 66
2019-12-14 16:00:00 16.2 10 Sur 18 Sur 0 -- -- 61
2019-12-14 15:00:00 17.4 8 Sur 9 Sur 0 -- -- 59
2019-12-14 14:00:00 15.5 6 Sudoeste 12 Sur 0 -- -- 62
2019-12-14 13:00:00 15.5 8 Sur 20 Sur 0 -- -- 64
2019-12-14 12:00:00 14.2 13 Sur 18 Sur 0 -- -- 66
2019-12-14 11:00:00 13.4 7 Sur 18 Sur 0 -- -- 71
2019-12-14 10:00:00 11.8 11 Sudoeste 18 Sudoeste 0 -- -- 71
2019-12-14 09:00:00 11 8 Sudoeste 18 Sudoeste 0 -- -- 74
2019-12-14 08:00:00 10.2 14 Sudoeste 19 Sudoeste 0 -- -- 80
2019-12-14 07:00:00 11 8 Sudoeste 15 Sudoeste 0 -- -- 78
2019-12-14 06:00:00 11 8 Sudoeste 14 Sudoeste 0 -- -- 84
2019-12-14 05:00:00 11.1 9 Sudoeste 19 Sudoeste 0 -- -- 86
2019-12-14 04:00:00 11 9 Sudoeste 17 Sudoeste 0 -- -- 89
2019-12-14 03:00:00 11.9 8 Sudoeste 18 Sudoeste 0 -- -- 89
2019-12-14 02:00:00 11.3 9 Sudoeste 15 Sudoeste 0 -- -- 92
2019-12-14 01:00:00 11.6 8 Sudoeste 18 Sudoeste 0 -- -- 92
2019-12-14 00:00:00 12.3 8 Sudoeste 24 Oeste 0 -- -- 91
2019-12-13 23:00:00 12.8 10 Oeste 29 Oeste 0 -- -- 90
2019-12-13 22:00:00 13.1 11 Oeste 37 Oeste 0 -- -- 86
2019-12-13 21:00:00 13.8 16 Noroeste 40 Noroeste 0 -- -- 83
2019-12-13 20:00:00 13.8 13 Noroeste 36 Noroeste 0 -- -- 89
2019-12-13 19:00:00 13.9 15 Oeste 35 Oeste 0 -- -- 89
2019-12-13 18:00:00 13.9 16 Noroeste 40 Noroeste 0 -- -- 90
2019-12-13 17:00:00 14.2 19 Noroeste 44 Noroeste 0 -- -- 90
2019-12-13 16:00:00 14.6 17 Noroeste 46 Noroeste 0 -- -- 90
2019-12-13 15:00:00 15.6 19 Noroeste 48 Noroeste 0 -- -- 86
2019-12-13 14:00:00 15.8 17 Noroeste 43 Oeste 0 -- -- 84
2019-12-13 13:00:00 16.7 16 Noroeste 43 Oeste 0 -- -- 76
2019-12-13 12:00:00 15.6 21 Noroeste 62 Oeste 0 -- -- 82
2019-12-13 11:00:00 15.2 27 Noroeste 58 Oeste 0 -- -- 83
2019-12-13 10:00:00 14.9 18 Noroeste 45 Oeste 0 -- -- 85
2019-12-13 09:00:00 13.9 19 Oeste 45 Noroeste 0 -- -- 92
2019-12-13 08:00:00 13.3 13 Oeste 51 Noroeste 0.2 -- -- 96
2019-12-13 07:00:00 13.8 30 Noroeste 64 Oeste 0 -- -- 92
2019-12-13 06:00:00 13.9 14 Noroeste 59 Noroeste 0 -- -- 92
2019-12-13 05:00:00 14 24 Noroeste 63 Noroeste 0 -- -- 93
2019-12-13 04:00:00 14.4 22 Noroeste 54 Oeste 0.2 -- -- 90
2019-12-13 03:00:00 14.1 14 Oeste 42 Oeste 0.2 -- -- 93
2019-12-13 02:00:00 13.4 12 Oeste 37 Oeste 1 -- -- 98
2019-12-13 01:00:00 13.4 12 Oeste 43 Oeste 0.2 -- -- 99
2019-12-13 00:00:00 13.2 13 Oeste 39 Noroeste 0.8 -- -- 99
2019-12-12 23:00:00 13.3 13 Oeste 45 Oeste 1 -- -- 98
2019-12-12 22:00:00 13.2 11 Oeste 35 Oeste 2.4 -- -- 98
2019-12-12 21:00:00 13.1 8 Oeste 41 Oeste 0.4 -- -- 96
2019-12-12 20:00:00 13 13 Oeste 68 Noroeste 1 -- -- 98
2019-12-12 19:00:00 12.9 15 Oeste 45 Oeste 2 -- -- 98
2019-12-12 18:00:00 12.8 13 Oeste 45 Oeste 1.6 -- -- 94
2019-12-12 17:00:00 12.8 14 Oeste 47 Oeste 1.2 -- -- 92
2019-12-12 16:00:00 12.9 14 Oeste 40 Oeste 0.4 -- -- 87
2019-12-12 15:00:00 11.4 10 Sudoeste 24 Oeste 0.6 -- -- 89
2019-12-12 14:00:00 9.7 14 Sur 22 Sudoeste 2 -- -- 94
2019-12-12 13:00:00 8.6 10 Sur 18 Sur 1.6 -- -- 96
2019-12-12 12:00:00 8.9 6 Sudoeste 11 Sur 0.2 -- -- 94
2019-12-12 11:00:00 8.9 7 Sur 12 Sur 0.2 -- -- 94
2019-12-12 10:00:00 8.9 8 Sudoeste 16 Sudoeste 0.6 -- -- 91
2019-12-12 09:00:00 10.8 6 Sudoeste 26 Oeste 0 -- -- 83
2019-12-12 08:00:00 9.1 7 Sudoeste 15 Sudoeste 0 -- -- 84
2019-12-12 07:00:00 8.7 8 Sudoeste 14 Sudoeste 0 -- -- 88
2019-12-12 06:00:00 8.6 7 Sur 12 Sur 0.2 -- -- 91
2019-12-12 05:00:00 8.7 5 Sudoeste 12 Sudoeste 0.2 -- -- 91
2019-12-12 04:00:00 9.4 6 Sudoeste 15 Oeste 0.6 -- -- 86
2019-12-12 03:00:00 10.1 8 Oeste 19 Sudoeste 0.4 -- -- 83
2019-12-12 02:00:00 11 11 Noroeste 30 Sudoeste 0 -- -- 80
2019-12-12 01:00:00 10.5 7 Oeste 23 Oeste 0.2 -- -- 78
2019-12-12 00:00:00 11.3 10 Noroeste 30 Noroeste 0 -- -- 75
2019-12-11 23:00:00 11 10 Oeste 41 Oeste 0 -- -- 72
2019-12-11 22:00:00 10.2 11 Oeste 33 Sudoeste 0.2 -- -- 80
2019-12-11 21:00:00 9.5 8 Sudoeste 40 Oeste 0.2 -- -- 87
2019-12-11 20:00:00 10 19 Noroeste 57 Oeste 0.6 -- -- 83
2019-12-11 19:00:00 11 14 Noroeste 46 Oeste 0 -- -- 70
2019-12-11 18:00:00 11.8 16 Oeste 43 Noroeste 0 -- -- 60
2019-12-11 17:00:00 11.9 13 Oeste 45 Noroeste 0 -- -- 55
2019-12-11 16:00:00 12.7 12 Oeste 33 Noroeste 0 -- -- 52
2019-12-11 15:00:00 12.6 10 Oeste 35 Noroeste 0 -- -- 49
2019-12-11 14:00:00 12.1 11 Oeste 41 Oeste 0 -- -- 56
2019-12-11 13:00:00 11.6 12 Oeste 35 Oeste 0 -- -- 64
2019-12-11 12:00:00 11 15 Oeste 33 Oeste 0 -- -- 70
2019-12-11 11:00:00 10.3 11 Oeste 32 Oeste 0.2 -- -- 75
2019-12-11 10:00:00 8.7 8 Oeste 28 Oeste 0 -- -- 88
2019-12-11 09:00:00 8.4 10 Oeste 40 Oeste 1.4 -- -- 96
2019-12-11 08:00:00 8.6 16 Noroeste 39 Oeste 3.4 -- -- 98
2019-12-11 07:00:00 9.5 16 Noroeste 41 Oeste 4.2 -- -- 98
2019-12-11 06:00:00 9.8 13 Noroeste 45 Noroeste 2.4 -- -- 97
2019-12-11 05:00:00 12 18 Noroeste 46 Noroeste 0 -- -- 94
2019-12-11 04:00:00 12.1 13 Noroeste 28 Noroeste 0 -- -- 73
2019-12-11 03:00:00 10.8 8 Sudoeste 16 Sudoeste 0 -- -- 67
2019-12-11 02:00:00 11.3 12 Sudoeste 18 Sudoeste 0 -- -- 65
2019-12-11 01:00:00 10.6 10 Sudoeste 16 Sudoeste 0 -- -- 72
2019-12-11 00:00:00 9.9 13 Sudoeste 16 Sudoeste 0 -- -- 78
2019-12-10 23:00:00 9.4 10 Sur 15 Sudoeste 0 -- -- 84
2019-12-10 22:00:00 11 2 Sudoeste 5 Sur 0 -- -- 74
2019-12-10 21:00:00 11.7 0 Calma 9 Sudoeste 0 -- -- 69
2019-12-10 20:00:00 12.2 6 Sudoeste 13 Sudoeste 0 -- -- 74
2019-12-10 19:00:00 13 0 Calma 19 Noroeste 0 -- -- 71
2019-12-10 18:00:00 13.4 6 Sudeste 9 Sudeste 0 -- -- 62
2019-12-10 17:00:00 14.1 5 Sur 8 Sudoeste 0 -- -- 59
2019-12-10 16:00:00 15.2 3 Sudoeste 6 Sudoeste 0 -- -- 68
2019-12-10 15:00:00 15.1 4 Sur 9 Sur 0 -- -- 65
2019-12-10 14:00:00 14.3 7 Sur 15 Sudoeste 0 -- -- 65
2019-12-10 13:00:00 13.4 5 Sudoeste 10 Sudoeste 0 -- -- 67
2019-12-10 12:00:00 11.5 3 Sur 9 Sur 0 -- -- 66
2019-12-10 11:00:00 9.9 8 Sur 14 Sudoeste 0 -- -- 74
2019-12-10 10:00:00 6.7 12 Sudoeste 18 Sudoeste 0 -- -- 82
2019-12-10 09:00:00 6.4 12 Sudoeste 21 Sudoeste 0 -- -- 87
2019-12-10 08:00:00 5.4 9 Sudoeste 20 Sudoeste 0 -- -- 92
2019-12-10 07:00:00 6 11 Sudoeste 18 Sur 0 -- -- 92
2019-12-10 06:00:00 6.2 7 Sudoeste 13 Sudoeste 0 -- -- 93
2019-12-10 05:00:00 6.9 8 Sudoeste 12 Sudoeste 0 -- -- 93
2019-12-10 04:00:00 7.3 8 Sudoeste 16 Sudoeste 0 -- -- 93
2019-12-10 03:00:00 8.4 10 Sur 15 Sur 0 -- -- 90
2019-12-10 02:00:00 9.1 5 Sudoeste 14 Sudoeste 0 -- -- 91
2019-12-10 01:00:00 9.2 7 Sudoeste 12 Sudoeste 0 -- -- 97
2019-12-10 00:00:00 9.7 4 Sudoeste 9 Sur 0.2 -- -- 98
2019-12-09 23:00:00 10.1 4 Sur 8 Sudoeste 1 -- -- 96
2019-12-09 22:00:00 10.3 2 Sudoeste 13 Sudoeste 0.6 -- -- 94
2019-12-09 21:00:00 10.7 6 Sudoeste 12 Oeste 0 -- -- 87
2019-12-09 20:00:00 11.5 4 Noroeste 23 Noroeste 0 -- -- 77
2019-12-09 19:00:00 11.6 10 Noroeste 26 Noroeste 0 -- -- 76
2019-12-09 18:00:00 11.5 15 Noroeste 31 Noroeste 0 -- -- 82
2019-12-09 17:00:00 12 18 Noroeste 38 Noroeste 0 -- -- 83
2019-12-09 16:00:00 12.2 13 Noroeste 39 Norte 0 -- -- 83
2019-12-09 15:00:00 12.8 14 Noroeste 46 Norte 0 -- -- 79
2019-12-09 14:00:00 13.4 20 Noroeste 44 Noroeste 0 -- -- 71
2019-12-09 13:00:00 12.3 21 Noroeste 47 Norte 0 -- -- 82
2019-12-09 12:00:00 12.8 18 Noroeste 42 Noroeste 0 -- -- 74
2019-12-09 11:00:00 12.6 18 Noroeste 48 Noroeste 0 -- -- 73
2019-12-09 10:00:00 12.4 12 Oeste 30 Oeste 0 -- -- 71
2019-12-09 09:00:00 12 9 Oeste 32 Sudoeste 0 -- -- 70
2019-12-09 08:00:00 11.9 11 Oeste 32 Oeste 0 -- -- 70
2019-12-09 07:00:00 11.4 11 Oeste 32 Oeste 0 -- -- 70
2019-12-09 06:00:00 10.9 13 Oeste 45 Noroeste 0 -- -- 76
2019-12-09 05:00:00 11.3 18 Noroeste 46 Noroeste 0 -- -- 81
2019-12-09 04:00:00 8.8 7 Oeste 21 Sudoeste 0 -- -- 94
2019-12-09 03:00:00 9.1 4 Oeste 17 Oeste 0 -- -- 93
2019-12-09 02:00:00 10.1 9 Oeste 20 Oeste 0 -- -- 92
2019-12-09 01:00:00 9.2 5 Sudoeste 16 Oeste 0 -- -- 93
2019-12-09 00:00:00 10.7 7 Sudoeste 22 Oeste 0 -- -- 88
2019-12-08 23:00:00 10.8 9 Oeste 19 Oeste 0 -- -- 89
2019-12-08 22:00:00 11.7 6 Oeste 38 Oeste 0 -- -- 84
2019-12-08 21:00:00 11.7 8 Oeste 26 Sudoeste 0 -- -- 88
2019-12-08 20:00:00 11.9 10 Oeste 35 Oeste 0 -- -- 88
2019-12-08 19:00:00 12 13 Noroeste 30 Noroeste 0 -- -- 90
2019-12-08 18:00:00 11.7 12 Noroeste 33 Norte 0 -- -- 94
2019-12-08 17:00:00 11.9 12 Noroeste 35 Oeste 0.2 -- -- 99
2019-12-08 16:00:00 12 15 Noroeste 45 Noroeste 1.2 -- -- 100
2019-12-08 15:00:00 13.4 13 Noroeste 33 Oeste 1.2 -- -- 99
2019-12-08 14:00:00 11.8 10 Sudoeste 17 Sudoeste 2.2 -- -- 98
2019-12-08 13:00:00 11.6 10 Sudoeste 17 Sudoeste 0.8 -- -- 94
2019-12-08 12:00:00 12 5 Sudoeste 8 Sur 0.4 -- -- 90
2019-12-08 11:00:00 12.7 5 Sudoeste 14 Sudoeste 0 -- -- 81
2019-12-08 10:00:00 12 3 Sudeste 14 Sudoeste 0 -- -- 82
2019-12-08 09:00:00 12.1 4 Sur 10 Sudoeste 0 -- -- 76
2019-12-08 08:00:00 11.6 8 Sudoeste 17 Sudoeste 0 -- -- 77
2019-12-08 07:00:00 11.3 13 Sudoeste 19 Sudoeste 0 -- -- 77
2019-12-08 06:00:00 10.6 11 Sur 21 Sudoeste 0 -- -- 79
2019-12-08 05:00:00 11.3 10 Sudoeste 17 Sudoeste 0 -- -- 77
2019-12-08 04:00:00 10.1 10 Sur 20 Sudoeste -- -- -- 81
2019-12-08 03:00:00 8.9 12 Sur 19 Sudoeste 0 -- -- 86
2019-12-08 02:00:00 9.3 13 Sudoeste 17 Sudoeste 0 -- -- 86
2019-12-08 01:00:00 9.3 10 Sudoeste 16 Sudoeste 0 -- -- 87
2019-12-08 00:00:00 9 9 Sur 14 Sudoeste 0 -- -- 86
2019-12-07 23:00:00 9.9 11 Sudoeste 15 Sudoeste 0 -- -- 89
2019-12-07 22:00:00 10.9 4 Sur 9 Sur 0 -- -- 86
2019-12-07 21:00:00 11.6 6 Sudoeste 9 Sudoeste 0 -- -- 88
2019-12-07 20:00:00 12.4 3 Sur 9 Sudoeste 0 -- -- 85
2019-12-07 19:00:00 12.8 4 Sudoeste 6 Sudeste 0 -- -- 83
2019-12-07 18:00:00 13.4 2 Este 4 Sudeste 0 -- -- 79
2019-12-07 17:00:00 15.2 3 Sudeste 5 Nordeste 0 -- -- 75
2019-12-07 16:00:00 16.3 2 Norte 5 Nordeste 0 -- -- 69
2019-12-07 15:00:00 15.7 3 Nordeste 5 Sur 0 -- -- 68
2019-12-07 14:00:00 15.4 0 Calma 8 Sudeste 0 -- -- 67
2019-12-07 13:00:00 14.7 5 Sur 14 Sur 0 -- -- 69
2019-12-07 12:00:00 12.5 7 Sudoeste 14 Sur 0 -- -- 79
2019-12-07 11:00:00 8.7 8 Sur 14 Sur 0 -- -- 89
2019-12-07 10:00:00 8.2 7 Sur 16 Sur 0 -- -- 88
2019-12-07 09:00:00 7.7 9 Sur 15 Sudoeste 0 -- -- 87
2019-12-07 08:00:00 7 8 Sur 15 Sudoeste 0 -- -- 88
2019-12-07 07:00:00 7.8 8 Sudoeste 14 Sur 0 -- -- 89
2019-12-07 06:00:00 7.1 5 Sur 16 Sudoeste 0 -- -- 88
2019-12-07 05:00:00 8.9 10 Sudoeste 18 Sudoeste 0 -- -- 86
2019-12-07 04:00:00 8.1 8 Sudoeste 14 Sudoeste 0 -- -- 87
2019-12-07 03:00:00 7.6 8 Sudoeste 13 Sudoeste 0 -- -- 92
2019-12-07 02:00:00 9.1 6 Sudoeste 16 Sudoeste 0 -- -- 87
2019-12-07 01:00:00 9.4 8 Sudoeste 15 Sudoeste 0 -- -- 89
2019-12-07 00:00:00 9.2 8 Sudoeste 15 Sudoeste 0 -- -- 91
2019-12-06 23:00:00 9.2 10 Sudoeste 15 Sudoeste 0 -- -- 93
2019-12-06 22:00:00 9.3 7 Sudoeste 11 Sudoeste 0 -- -- 93
2019-12-06 21:00:00 9.4 8 Sudoeste 15 Oeste 0 -- -- 90
2019-12-06 20:00:00 10.1 4 Sudoeste 15 Noroeste 0 -- -- 87
2019-12-06 19:00:00 10.6 4 Sur 12 Sudoeste 0 -- -- 84
2019-12-06 18:00:00 11 7 Sudoeste 12 Oeste 0 -- -- 82
2019-12-06 17:00:00 11.2 2 Sudoeste 10 Sudoeste 0 -- -- 85
2019-12-06 16:00:00 11 4 Sudoeste 14 Noroeste 0 -- -- 89
2019-12-06 15:00:00 11.8 6 Noroeste 15 Noroeste 0 -- -- 86
2019-12-06 14:00:00 11.5 0 Calma 8 Sudoeste 0 -- -- 84
2019-12-06 13:00:00 11.6 6 Sur 13 Oeste 0 -- -- 82
2019-12-06 12:00:00 10 5 Sudoeste 11 Sudoeste 0 -- -- 83
2019-12-06 11:00:00 8.4 6 Sur 13 Sudoeste 0 -- -- 91
2019-12-06 10:00:00 7.2 6 Sudoeste 17 Sudoeste 0 -- -- 89
2019-12-06 09:00:00 5.4 10 Sudoeste 16 Sudoeste 0 -- -- 94
2019-12-06 08:00:00 5.7 7 Sudoeste 17 Sudoeste 0 -- -- 90
2019-12-06 07:00:00 6.1 8 Sudoeste 18 Sudoeste 0 -- -- 94
2019-12-06 06:00:00 5.4 9 Sudoeste 17 Sudoeste 0 -- -- 97
2019-12-06 05:00:00 5 9 Sudoeste 15 Sudoeste 0 -- -- 97
2019-12-06 04:00:00 6.6 4 Oeste 11 Oeste 0 -- -- 98
2019-12-06 03:00:00 5.9 12 Sudoeste 18 Sudoeste 0 -- -- 100
2019-12-06 02:00:00 6.6 3 Este 8 Este 0 -- -- 100
2019-12-06 01:00:00 7.2 2 Este 10 Este 0 -- -- 100
2019-12-06 00:00:00 7.5 3 Este 9 Este 0 -- -- 100
2019-12-05 23:00:00 8.1 5 Sur 6 Sur 0 -- -- 100
2019-12-05 22:00:00 8.6 2 Noroeste 8 Sur 0 -- -- 98
2019-12-05 21:00:00 9.3 6 Sur 8 Sudeste 0 -- -- 98
2019-12-05 20:00:00 10 3 Nordeste 10 Este 0 -- -- 96
2019-12-05 19:00:00 10.4 3 Este 6 Nordeste 0 -- -- 95
2019-12-05 18:00:00 10.6 4 Norte 8 Norte 0 -- -- 95
2019-12-05 17:00:00 11.6 0 Calma 3 Este 0 -- -- 91
2019-12-05 16:00:00 11.9 2 Nordeste 4 Este 0 -- -- 91
2019-12-05 15:00:00 12 0 Calma 5 Oeste 0 -- -- 89
2019-12-05 14:00:00 12 3 Sudoeste 6 Sudoeste 0 -- -- 89
2019-12-05 13:00:00 11.5 2 Noroeste 12 Sudoeste 0 -- -- 92
2019-12-05 12:00:00 10.6 5 Sudoeste 11 Sudoeste 0 -- -- 95
2019-12-05 11:00:00 9.6 9 Sudoeste 13 Sudoeste 0 -- -- 98
2019-12-05 10:00:00 9 9 Sudoeste 17 Sudoeste 0 -- -- 100
2019-12-05 09:00:00 9.2 0 Calma 5 Este 0.4 -- -- 99
2019-12-05 08:00:00 9.5 4 Oeste 16 Oeste 0 -- -- 99
2019-12-05 07:00:00 9.1 9 Sudoeste 14 Sudoeste 0 -- -- 100
2019-12-05 06:00:00 8.9 9 Sudoeste 15 Sudoeste 0 -- -- 100
2019-12-05 05:00:00 8.8 8 Sudoeste 14 Sudoeste 0.4 -- -- 100
2019-12-05 04:00:00 9.1 9 Sur 20 Noroeste 0 -- -- 99
2019-12-05 03:00:00 10.3 5 Norte 24 Nordeste 0.2 -- -- 100
2019-12-05 02:00:00 10.3 13 Norte 27 Norte 0.4 -- -- 100
2019-12-05 01:00:00 9.5 8 Noroeste 26 Noroeste 2.8 -- -- 99
2019-12-05 00:00:00 8.8 7 Noroeste 25 Oeste 1.6 -- -- 98
2019-12-04 23:00:00 8.6 11 Oeste 27 Oeste 0.2 -- -- 94
2019-12-04 22:00:00 9.4 9 Noroeste 22 Oeste 0 -- -- 86
2019-12-04 21:00:00 9.6 5 Oeste 16 Oeste 0 -- -- 85
2019-12-04 20:00:00 9.4 6 Oeste 14 Noroeste 0 -- -- 87
2019-12-04 19:00:00 9.4 5 Sudoeste 14 Sudoeste 0 -- -- 89
2019-12-04 18:00:00 9.7 4 Sudoeste 15 Oeste 0 -- -- 89
2019-12-04 17:00:00 10.3 6 Noroeste 15 Oeste 0 -- -- 87
2019-12-04 16:00:00 10.8 5 Noroeste 21 Noroeste 0 -- -- 84
2019-12-04 15:00:00 10.9 10 Noroeste 22 Noroeste 0 -- -- 81
2019-12-04 14:00:00 11.8 6 Noroeste 16 Noroeste 0 -- -- 75
2019-12-04 13:00:00 11.4 5 Noroeste 13 Oeste 0 -- -- 70
2019-12-04 12:00:00 9.4 5 Sur 9 Sur 0 -- -- 79
2019-12-04 11:00:00 9 3 Sudoeste 15 Sudoeste 0 -- -- 82
2019-12-04 10:00:00 4.9 9 Sudoeste 14 Sudoeste 0 -- -- 87
2019-12-04 09:00:00 3 5 Sur 9 Sudoeste 0 -- -- 88
2019-12-04 08:00:00 4 3 Sudoeste 14 Sudoeste 0 -- -- 82
2019-12-04 07:00:00 3.4 6 Sudoeste 14 Sudoeste 0 -- -- 89
2019-12-04 06:00:00 2.8 9 Sudoeste 13 Sudoeste 0 -- -- 90
2019-12-04 05:00:00 3 6 Sudoeste 17 Sudoeste 0 -- -- 92
2019-12-04 04:00:00 3 5 Sudoeste 10 Sudoeste 0 -- -- 91
2019-12-04 03:00:00 2.9 4 Sudoeste 22 Sur 0 -- -- 88
2019-12-04 02:00:00 4.6 13 Sur 23 Sudoeste 0 -- -- 85
2019-12-04 01:00:00 4.6 13 Sudeste 24 Sudeste 0 -- -- 85
2019-12-04 00:00:00 2.5 5 Sur 14 Sudoeste 0 -- -- 96
2019-12-03 23:00:00 3.3 2 Sur 9 Sur 0 -- -- 94
2019-12-03 22:00:00 3.7 6 Sudeste 14 Este 0 -- -- 93
2019-12-03 21:00:00 4.4 7 Este 15 Sudeste 0 -- -- 91
2019-12-03 20:00:00 4.9 8 Este 13 Este 0 -- -- 89
2019-12-03 19:00:00 5.3 3 Sudeste 8 Este 0 -- -- 86
2019-12-03 18:00:00 6 3 Nordeste 10 Nordeste 0 -- -- 85
2019-12-03 17:00:00 7.4 6 Norte 12 Norte 0 -- -- 79
2019-12-03 16:00:00 9.2 4 Nordeste 8 Nordeste 0 -- -- 69
2019-12-03 15:00:00 9.1 5 Nordeste 10 Norte -- -- -- 70
2019-12-03 14:00:00 8.2 8 Norte 17 Noroeste 0 -- -- 75
2019-12-03 13:00:00 9 6 Norte 16 Norte 0 -- -- 73
2019-12-03 12:00:00 10.4 5 Sudeste 10 Este 0 -- -- 73
2019-12-03 11:00:00 8.9 6 Sudoeste 9 Sudoeste 0 -- -- 83
2019-12-03 10:00:00 6.7 4 Sudoeste 7 Sudoeste 0 -- -- 89
2019-12-03 09:00:00 6.1 4 Sudoeste 10 Sudoeste 0 -- -- 92
2019-12-03 08:00:00 6.4 2 Sudoeste 10 Sudoeste 0 -- -- 87
2019-12-03 07:00:00 6.6 5 Sudoeste 9 Sudoeste 0 -- -- 91
2019-12-03 06:00:00 6.9 4 Sudoeste 6 Sudoeste 0 -- -- 87
2019-12-03 05:00:00 7.2 0 Calma 9 Nordeste 0 -- -- 84
2019-12-03 04:00:00 7.3 4 Norte 19 Norte 0 -- -- 84
2019-12-03 03:00:00 7 6 Norte 17 Nordeste 0 -- -- 89
2019-12-03 02:00:00 7 3 Sudoeste 9 Oeste 0 -- -- 89
2019-12-03 01:00:00 7.4 2 Este 8 Este 0 -- -- 87
2019-12-03 00:00:00 7.5 2 Este 8 Norte 0 -- -- 87
2019-12-02 23:00:00 7.5 0 Calma 8 Sudoeste 0 -- -- 87
2019-12-02 22:00:00 7.2 5 Sudoeste 11 Sudoeste 0 -- -- 90
2019-12-02 21:00:00 7.3 5 Sudoeste 10 Sudoeste 0 -- -- 90
2019-12-02 20:00:00 7.3 3 Sudoeste 4 Sudoeste 0 -- -- 89
2019-12-02 19:00:00 7.5 0 Calma 15 Norte 0 -- -- 88
2019-12-02 18:00:00 7.7 8 Norte 27 Nordeste 0 -- -- 82
2019-12-02 17:00:00 8.4 13 Norte 32 Norte 0 -- -- 81
2019-12-02 16:00:00 8.8 10 Norte 25 Nordeste 0 -- -- 84
2019-12-02 15:00:00 8.8 14 Norte 31 Nordeste 0 -- -- 82
2019-12-02 14:00:00 9.4 14 Norte 33 Norte 0 -- -- 85
2019-12-02 13:00:00 9.9 14 Norte 34 Norte 0 -- -- 85
2019-12-02 12:00:00 10.2 15 Norte 31 Nordeste 0 -- -- 83
2019-12-02 11:00:00 10.1 16 Norte 35 Norte 0 -- -- 85
2019-12-02 10:00:00 10 19 Norte 34 Nordeste 0 -- -- 91
2019-12-02 09:00:00 9.7 14 Norte 30 Norte 0 -- -- 93
2019-12-02 08:00:00 8.9 8 Norte 20 Nordeste 0 -- -- 100
2019-12-02 07:00:00 8.1 9 Sudoeste 16 Sudoeste 0.8 -- -- 100
2019-12-02 06:00:00 8.1 5 Sur 12 Sudoeste 1.4 -- -- 100
2019-12-02 05:00:00 7.8 9 Sudoeste 17 Sudoeste 2.4 -- -- 100
2019-12-02 04:00:00 8.3 8 Sudoeste 19 Oeste 2.8 -- -- 99
2019-12-02 03:00:00 8.2 8 Oeste 23 Oeste 3.8 -- -- 99
2019-12-02 02:00:00 8.3 11 Oeste 24 Oeste 0.6 -- -- 100
2019-12-02 01:00:00 8.4 9 Sur 14 Sudoeste 4.8 -- -- 100
2019-12-02 00:00:00 8.9 8 Sudoeste 12 Sudoeste 0 -- -- 100
2019-12-01 23:00:00 8.9 6 Sudoeste 8 Sudoeste 0 -- -- 100
2019-12-01 22:00:00 8.9 5 Norte 23 Norte 0.8 -- -- 100
2019-12-01 21:00:00 8.9 20 Norte 33 Nordeste 2.8 -- -- 99
2019-12-01 20:00:00 9.4 21 Norte 36 Norte 5.2 -- -- 99
2019-12-01 19:00:00 9.5 14 Norte 29 Norte 0.8 -- -- 99
2019-12-01 18:00:00 8.8 11 Sudoeste 28 Sudoeste 4.4 -- -- 97
2019-12-01 17:00:00 10.3 6 Sudoeste 34 Norte 0.4 -- -- 92
2019-12-01 16:00:00 12.4 8 Norte 14 Norte 0 -- -- 83
2019-12-01 15:00:00 13.5 5 Noroeste 14 Noroeste 0 -- -- 80
2019-12-01 14:00:00 13.8 8 Norte 17 Oeste 0 -- -- 73
2019-12-01 13:00:00 13.5 6 Oeste 19 Noroeste 0 -- -- 75
2019-12-01 12:00:00 13 7 Noroeste 15 Noroeste 0 -- -- 77
2019-12-01 11:00:00 12.1 5 Sudoeste 9 Sudoeste 0 -- -- 75
2019-12-01 10:00:00 10.4 8 Sudoeste 9 Sudoeste 0 -- -- 79
2019-12-01 09:00:00 9.4 0 Calma 5 Sur 0 -- -- 81
2019-12-01 08:00:00 8.9 3 Oeste 11 Sudoeste 0 -- -- 84
2019-12-01 07:00:00 8.9 10 Sur 17 Sur 0 -- -- 83
2019-12-01 06:00:00 8.3 9 Sudoeste 12 Sudoeste 0 -- -- 85
2019-12-01 05:00:00 7.5 3 Este 12 Sudoeste 0 -- -- 88
2019-12-01 04:00:00 6.7 0 Calma 8 Sudoeste 0 -- -- 92
2019-12-01 03:00:00 6 0 Calma 10 Sudoeste 0 -- -- 95
2019-12-01 02:00:00 6.6 5 Sur 12 Sudoeste 0 -- -- 95
2019-12-01 01:00:00 7.9 9 Sudoeste 14 Sudoeste 0 -- -- 91
2019-12-01 00:00:00 7.1 8 Sur 10 Sudeste 0 -- -- 95
2019-11-30 23:00:00 7.9 6 Sudeste 10 Sur 0 -- -- 97
2019-11-30 22:00:00 8.5 3 Sudeste 8 Sudeste 0 -- -- 99
2019-11-30 21:00:00 9.2 5 Sur 10 Sur 0.2 -- -- 99
2019-11-30 20:00:00 9.4 8 Sur 10 Sur 0 -- -- 97
2019-11-30 19:00:00 10.4 8 Norte 12 Norte 0 -- -- 94
2019-11-30 18:00:00 10.7 5 Sudoeste 8 Sudoeste 0 -- -- 97
2019-11-30 17:00:00 11.5 4 Sur 5 Sur 0 -- -- 98
2019-11-30 16:00:00 11.7 5 Sur 8 Sur 0 -- -- 99
2019-11-30 15:00:00 11.1 3 Sudoeste 9 Sudoeste 0 -- -- 99
2019-11-30 14:00:00 11.1 6 Sur 9 Sudoeste 0.2 -- -- 99
2019-11-30 13:00:00 10.7 5 Sudoeste 12 Sur 3.6 -- -- 99
2019-11-30 12:00:00 10.8 8 Sur 11 Sur 2.4 -- -- 98
2019-11-30 11:00:00 10.9 7 Sudoeste 21 Oeste 1 -- -- 97
2019-11-30 10:00:00 11.5 5 Oeste 44 Noroeste 1.6 -- -- 97
2019-11-30 09:00:00 -- 12 Noroeste 39 Noroeste 2.4 -- -- --
2019-11-30 08:00:00 14 8 Sur 31 Oeste 0 -- -- 77
2019-11-30 07:00:00 15.1 8 Sur 26 Sur 0 -- -- 77
2019-11-30 06:00:00 14.4 12 Sur 19 Sur 0 -- -- 80
2019-11-30 05:00:00 14.4 6 Sur 20 Sur 0 -- -- 80
2019-11-30 04:00:00 13.4 9 Sur 15 Sur 0 -- -- 73
2019-11-30 03:00:00 11.1 8 Sudoeste 17 Sudoeste 0 -- -- 75
2019-11-30 02:00:00 10 12 Sudoeste 17 Sudoeste 0 -- -- 81
2019-11-30 01:00:00 8.8 8 Sur 13 Sudoeste 0 -- -- 94
2019-11-30 00:00:00 8.8 9 Sudoeste 15 Sudoeste 0 -- -- 95
2019-11-29 23:00:00 9.5 9 Sudoeste 13 Sudoeste 0 -- -- 95
2019-11-29 22:00:00 10 5 Sur 9 Sudoeste 0 -- -- 96
2019-11-29 21:00:00 10.7 7 Sudoeste 9 Sudoeste 0 -- -- 95
2019-11-29 20:00:00 11.3 6 Sudeste 9 Sudeste 0 -- -- 93
2019-11-29 19:00:00 11.9 6 Este 12 Este 0 -- -- 92
2019-11-29 18:00:00 12.4 4 Nordeste 10 Nordeste 0 -- -- 88
2019-11-29 17:00:00 13.8 6 Nordeste 12 Nordeste 0 -- -- 79
2019-11-29 16:00:00 15.3 6 Norte 13 Noroeste 0 -- -- 72
2019-11-29 15:00:00 15.8 9 Noroeste 13 Noroeste 0 -- -- 70
2019-11-29 14:00:00 16 9 Norte 13 Noroeste 0 -- -- 68
2019-11-29 13:00:00 16.4 6 Noroeste 11 Noroeste 0 -- -- 75
2019-11-29 12:00:00 16.2 3 Sudeste 10 Sur 0 -- -- 76
2019-11-29 11:00:00 14.5 8 Sur 12 Sudoeste 0 -- -- 88
2019-11-29 10:00:00 12.9 9 Sudoeste 14 Sudoeste 0 -- -- 92
2019-11-29 09:00:00 11.8 6 Sudoeste 10 Sudoeste 0 -- -- 98
2019-11-29 08:00:00 12.1 7 Sudoeste 11 Sudoeste 0 -- -- 97
2019-11-29 07:00:00 12.6 4 Sudoeste 16 Oeste 0 -- -- 97
2019-11-29 06:00:00 12.6 4 Sudoeste 11 Oeste 0 -- -- 98
2019-11-29 05:00:00 12.6 5 Oeste 12 Oeste 0 -- -- 98
2019-11-29 04:00:00 12.5 3 Oeste 10 Oeste 0 -- -- 99
2019-11-29 03:00:00 12.2 5 Sudoeste 15 Sudoeste 0 -- -- 100
2019-11-29 02:00:00 12.1 4 Sudoeste 10 Noroeste 0 -- -- 100
2019-11-29 01:00:00 11.7 8 Sur 19 Sudoeste 0.4 -- -- 100
2019-11-29 00:00:00 11.5 12 Sudoeste 18 Sur 0.2 -- -- 100
2019-11-28 23:00:00 11.7 6 Oeste 20 Noroeste 1.6 -- -- 99
2019-11-28 22:00:00 11.6 9 Noroeste 18 Noroeste 0.4 -- -- 98
2019-11-28 21:00:00 11.2 5 Sur 10 Sudoeste 0 -- -- 96
2019-11-28 20:00:00 11.2 7 Sur 19 Nordeste 0 -- -- 95
2019-11-28 19:00:00 11.3 9 Sudeste 17 Sudeste 0.2 -- -- 97
2019-11-28 18:00:00 10.8 12 Sur 17 Sudeste 0.2 -- -- 99
2019-11-28 17:00:00 11.4 6 Sur 10 Sur 1.6 -- -- 97
2019-11-28 16:00:00 11.9 3 Oeste 8 Sur 1.8 -- -- 94
2019-11-28 15:00:00 12.8 5 Noroeste 12 Noroeste 0.2 -- -- 89
2019-11-28 14:00:00 13.1 3 Noroeste 8 Sur 0 -- -- 89
2019-11-28 13:00:00 11.9 7 Sudeste 10 Sudeste 0 -- -- 90
2019-11-28 12:00:00 12.1 0 Calma 9 Sur 0 -- -- 88
2019-11-28 11:00:00 11.6 2 Sur 8 Sudoeste 0 -- -- 87
2019-11-28 10:00:00 10.5 4 Sudoeste 13 Sudoeste 0 -- -- 95
2019-11-28 09:00:00 9.2 9 Sudoeste 15 Sudoeste 0.2 -- -- 96
2019-11-28 08:00:00 11.4 5 Noroeste 16 Noroeste 0.4 -- -- 96
2019-11-28 07:00:00 11 3 Oeste 17 Sudoeste 0 -- -- 83
2019-11-28 06:00:00 10.9 7 Sudoeste 15 Sudoeste 0 -- -- 82
2019-11-28 05:00:00 10 12 Sudoeste 17 Sudoeste 0 -- -- 85
2019-11-28 04:00:00 10 9 Sudoeste 15 Sudoeste 0.2 -- -- 86
2019-11-28 03:00:00 10.1 6 Sudoeste 16 Sudoeste 0 -- -- 88
2019-11-28 02:00:00 9.6 6 Sudeste 14 Sudoeste 0 -- -- 92
2019-11-28 01:00:00 9.5 10 Sudoeste 14 Sudoeste 0.6 -- -- 94
2019-11-28 00:00:00 9.9 6 Sudoeste 13 Sur 0 -- -- 93
2019-11-27 23:00:00 10.6 4 Noroeste 10 Noroeste 0 -- -- 90
2019-11-27 22:00:00 11.1 3 Sudoeste 6 Sudoeste 0.2 -- -- 84
2019-11-27 21:00:00 11 4 Sur 9 Sudoeste 0.4 -- -- 88
2019-11-27 20:00:00 11.2 5 Sudoeste 17 Sudoeste 0 -- -- 86
2019-11-27 19:00:00 11.6 6 Sudoeste 13 Sudeste 0.2 -- -- 84
2019-11-27 18:00:00 13 5 Oeste 24 Noroeste 0 -- -- 71
2019-11-27 17:00:00 12.3 8 Sudoeste 15 Sudoeste 0 -- -- 84
2019-11-27 16:00:00 12.7 11 Sur 16 Noroeste -- -- -- 81
2019-11-27 15:00:00 13.9 7 Noroeste 14 Noroeste 0 -- -- 69
2019-11-27 14:00:00 13.8 5 Norte 7 Norte 0 -- -- 78
2019-11-27 06:00:00 -- -- -- -- -- -- -- -- --
2019-11-27 05:00:00 10.4 7 Sudoeste 14 Sur 0 -- -- 94
2019-11-27 04:00:00 10.6 3 Sudoeste 12 Norte 0 -- -- 93
2019-11-27 03:00:00 10.7 2 Noroeste 6 Noroeste 0 -- -- 95
2019-11-27 02:00:00 10.4 4 Nordeste 17 Sudoeste 0 -- -- 95
2019-11-27 01:00:00 9.9 11 Sudoeste 21 Sudoeste 0 -- -- 98
2019-11-27 00:00:00 10.1 0 Calma 8 Este 0 -- -- 98
2019-11-26 23:00:00 10.5 3 Sur 8 Sudoeste 0 -- -- 95
2019-11-26 22:00:00 11.1 5 Sudeste 17 Sur 0 -- -- 94
2019-11-26 21:00:00 11.6 12 Noroeste 56 Oeste 1.8 -- -- 95
2019-11-26 20:00:00 16.5 14 Noroeste 36 Noroeste 0 -- -- 65
2019-11-26 19:00:00 20 17 Sudoeste 40 Sudoeste 0 -- -- 36
2019-11-26 18:00:00 18.8 12 Sur 21 Sur 0 -- -- 46
2019-11-26 17:00:00 18.7 3 Sur 17 Sur 0 -- -- 50
2019-11-26 16:00:00 18.3 2 Oeste 7 Sudoeste 0 -- -- 58
2019-11-26 15:00:00 17.4 7 Sudoeste 13 Sudoeste 0 -- -- 69
2019-11-26 14:00:00 16.2 8 Sudoeste 15 Sudoeste 0 -- -- 78
2019-11-26 13:00:00 16.2 6 Sudoeste 15 Oeste 0 -- -- 79
2019-11-26 12:00:00 16.4 8 Noroeste 19 Oeste 0 -- -- 76
2019-11-26 11:00:00 17.6 6 Sur 19 Sur 0 -- -- 70
2019-11-26 10:00:00 16.1 8 Sur 36 Sur 0 -- -- 75
2019-11-26 09:00:00 15.3 19 Sur 30 Sur 0 -- -- 72
2019-11-26 08:00:00 14.8 15 Sur 28 Sur 0 -- -- 73
2019-11-26 07:00:00 14.2 8 Sur 19 Sur 0 -- -- 73
2019-11-26 06:00:00 13.1 11 Sur 18 Sur 0 -- -- 75
2019-11-26 05:00:00 13.4 12 Sur 22 Sur 0 -- -- 73
2019-11-26 04:00:00 13.7 11 Sur 29 Sudeste 0 -- -- 69
2019-11-26 03:00:00 14.2 10 Sudeste 31 Sur 0 -- -- 66
2019-11-26 02:00:00 11.4 12 Sur 17 Sur 0 -- -- 89
2019-11-26 01:00:00 10.1 6 Sur 10 Sur 0 -- -- 98
2019-11-26 00:00:00 10.7 4 Sudoeste 12 Sudoeste 0 -- -- 97
2019-11-25 23:00:00 10.9 9 Sudeste 12 Sudeste 0 -- -- 96
2019-11-25 22:00:00 12 8 Sudeste 13 Sudeste 0 -- -- 94
2019-11-25 21:00:00 12.3 5 Sudeste 8 Sudeste 0 -- -- 94
2019-11-25 20:00:00 12.8 4 Sur 5 Sur 0 -- -- 94
2019-11-25 19:00:00 13.1 3 Sur 4 Sudeste 0 -- -- 92
2019-11-25 18:00:00 13.5 3 Sur 4 Oeste 0 -- -- 90
2019-11-25 17:00:00 13.9 0 Calma 16 Noroeste 0 -- -- 89
2019-11-25 16:00:00 14.1 11 Noroeste 21 Noroeste 0 -- -- 87
2019-11-25 15:00:00 14.7 12 Noroeste 23 Norte 0 -- -- 84
2019-11-25 14:00:00 15.4 10 Noroeste 22 Noroeste 0 -- -- 82
2019-11-25 13:00:00 15.6 11 Noroeste 19 Noroeste 0 -- -- 80
2019-11-25 12:00:00 15.9 11 Norte 18 Noroeste 0 -- -- 80
2019-11-25 11:00:00 15.1 4 Sur 11 Sudoeste 0 -- -- 79
2019-11-25 10:00:00 12.4 3 Sur 6 Sur -- -- -- 92
2019-11-25 09:00:00 11.3 4 Sudoeste 14 Sudoeste 0 -- -- 95
2019-11-25 08:00:00 11.2 6 Sudoeste 10 Sudeste 0 -- -- 95
2019-11-25 07:00:00 12.1 0 Calma 15 Sudoeste 0 -- -- 91
2019-11-25 06:00:00 12 10 Sudoeste 16 Sur 0 -- -- 92
2019-11-25 05:00:00 13.1 9 Noroeste 28 Noroeste 0 -- -- 91
2019-11-25 04:00:00 12.8 5 Sudoeste 15 Sur 0 -- -- 74
2019-11-25 03:00:00 12.4 9 Sur 19 Sudeste 0 -- -- 76
2019-11-25 02:00:00 12.9 8 Sur 18 Sur -- -- -- 72
2019-11-25 01:00:00 12.3 8 Sur 18 Sur 0 -- -- 78
2019-11-25 00:00:00 12 8 Sur 15 Sur 0 -- -- 80
2019-11-24 23:00:00 11.9 10 Sudeste 18 Sudeste 0 -- -- 81
2019-11-24 22:00:00 11.7 6 Sur 13 Sudeste 0 -- -- 84
2019-11-24 21:00:00 11.4 8 Sur 28 Sur 1 -- -- 87
2019-11-24 20:00:00 12.4 15 Sur 24 Sur 0 -- -- 72
2019-11-24 19:00:00 12.8 9 Sur 21 Sur 0 -- -- 66
2019-11-24 18:00:00 12.4 13 Sur 22 Sur 0 -- -- 67
2019-11-24 17:00:00 12.9 10 Sudeste 21 Sudeste 0 -- -- 62
2019-11-24 16:00:00 13.7 12 Sudeste 18 Sudeste 0 -- -- 67
2019-11-24 15:00:00 13.3 8 Sudeste 17 Sur 0 -- -- 68
2019-11-24 14:00:00 13.2 7 Sudeste 15 Sudeste 0 -- -- 70
2019-11-24 13:00:00 12.5 4 Sur 11 Sur 0 -- -- 71
2019-11-24 12:00:00 12 8 Sur 13 Sudoeste 0 -- -- 76
2019-11-24 11:00:00 10 6 Sudoeste 14 Sur 0 -- -- 81
2019-11-24 10:00:00 10 8 Sudoeste 14 Oeste 0 -- -- 79
2019-11-24 09:00:00 9.8 7 Sudoeste 10 Sudoeste 0 -- -- 82
2019-11-24 08:00:00 9.7 4 Sudoeste 9 Oeste 0 -- -- 83
2019-11-24 07:00:00 10.3 4 Sudoeste 21 Noroeste 0.2 -- -- 81
2019-11-24 06:00:00 11 8 Oeste 28 Noroeste 0 -- -- 77
2019-11-24 05:00:00 10.6 5 Oeste 21 Oeste 0 -- -- 79
2019-11-24 04:00:00 10.2 6 Sudoeste 26 Oeste 0 -- -- 79
2019-11-24 03:00:00 10.1 9 Oeste 28 Noroeste 0.2 -- -- 81
2019-11-24 02:00:00 9.8 8 Sudoeste 28 Oeste 0 -- -- 81
2019-11-24 01:00:00 9.5 8 Oeste 25 Oeste 0.6 -- -- 87
2019-11-24 00:00:00 9.4 10 Oeste 36 Oeste 0.2 -- -- 87
2019-11-23 23:00:00 9.1 9 Oeste 40 Oeste 1.2 -- -- 92
2019-11-23 22:00:00 9.6 11 Oeste 34 Oeste 0.4 -- -- 84
2019-11-23 21:00:00 9.5 7 Sudoeste 34 Sudoeste 0 -- -- 80
2019-11-23 20:00:00 9.3 10 Oeste 37 Noroeste 0.6 -- -- 86
2019-11-23 19:00:00 9.9 11 Sudoeste 35 Sudoeste 0 -- -- 80
2019-11-23 18:00:00 9.8 11 Sudoeste 35 Sudoeste 0.2 -- -- 84
2019-11-23 17:00:00 9.3 11 Sudoeste 54 Oeste 1.4 -- -- 89
2019-11-23 16:00:00 10.3 13 Oeste 43 Noroeste 0 -- -- 87
2019-11-23 15:00:00 10.4 14 Oeste 38 Oeste 0.2 -- -- 87
2019-11-23 14:00:00 10.9 9 Oeste 35 Oeste 0.2 -- -- 85
2019-11-23 13:00:00 9.9 16 Oeste 46 Oeste 5 -- -- 93
2019-11-23 12:00:00 10.2 12 Oeste 40 Oeste 0.6 -- -- 91
2019-11-23 11:00:00 10.3 12 Oeste 57 Noroeste 0.2 -- -- 86
2019-11-23 10:00:00 9.3 21 Noroeste 75 Noroeste 1.6 -- -- 91
2019-11-23 09:00:00 9.2 21 Oeste 59 Noroeste 1.6 -- -- 92
2019-11-23 08:00:00 10.1 29 Noroeste 67 Oeste 2.2 -- -- 85
2019-11-23 07:00:00 9.3 22 Oeste 76 Oeste 5.8 -- -- 97
2019-11-23 06:00:00 10.5 26 Oeste 74 Noroeste 2.4 -- -- 96
2019-11-23 05:00:00 10.8 30 Noroeste 62 Noroeste 3.8 -- -- 97
2019-11-23 04:00:00 10 14 Oeste 43 Oeste 7.6 -- -- 96
2019-11-23 03:00:00 10.5 15 Oeste 43 Sudoeste 1.4 -- -- 84
2019-11-23 02:00:00 10.9 6 Sudoeste 21 Oeste 0 -- -- 90
2019-11-23 01:00:00 11.5 12 Noroeste 26 Noroeste 0.4 -- -- 89
2019-11-23 00:00:00 12.3 9 Noroeste 18 Noroeste 0 -- -- 73
2019-11-22 23:00:00 12.8 5 Sudoeste 32 Sudoeste 0 -- -- 62
2019-11-22 22:00:00 12.7 17 Sudoeste 31 Sudoeste 0 -- -- 62
2019-11-22 21:00:00 10.8 12 Sur 19 Sur 0 -- -- 84
2019-11-22 20:00:00 10.4 4 Sur 10 Sur 0 -- -- 94
2019-11-22 19:00:00 10.9 0 Calma 8 Sudoeste 0 -- -- 94
2019-11-22 18:00:00 11.7 3 Sur 8 Sudoeste 0 -- -- 92
2019-11-22 17:00:00 13.3 6 Sur 27 Noroeste 0.4 -- -- 88
2019-11-22 16:00:00 13.9 18 Noroeste 41 Noroeste 0.2 -- -- 80
2019-11-22 15:00:00 17.2 17 Sur 50 Sur 0 -- -- 60
2019-11-22 14:00:00 15.4 35 Sur 72 Sur 0 -- -- 67
2019-11-22 13:00:00 14.8 23 Sur 40 Sur 0 -- -- 65
2019-11-22 12:00:00 14.6 18 Sur 71 Sur 0 -- -- 58
2019-11-22 11:00:00 14.8 45 Sur 69 Sur 0 -- -- 55
2019-11-22 10:00:00 13.6 41 Sur 67 Sur 0.2 -- -- 55
2019-11-22 09:00:00 12.9 26 Sur 43 Sur 0 -- -- 60
2019-11-22 08:00:00 12.6 24 Sur 41 Sur 0 -- -- 61
2019-11-22 07:00:00 11.9 17 Sur 31 Sur 0 -- -- 64
2019-11-22 06:00:00 12.5 30 Sur 46 Sur 0 -- -- 53
2019-11-22 05:00:00 10.9 18 Sur 31 Sudeste 0 -- -- 66
2019-11-22 04:00:00 10.4 14 Sur 29 Sudoeste 0 -- -- 68
2019-11-22 03:00:00 9 10 Sur 20 Sur 0 -- -- 68
2019-11-22 02:00:00 8.3 4 Sur 12 Sur 0 -- -- 72
2019-11-22 01:00:00 8.7 6 Sur 10 Sudeste 0 -- -- 70
2019-11-22 00:00:00 8.5 7 Sur 14 Sur -- -- -- 70
2019-11-21 23:00:00 8.8 8 Sur 10 Sur 0 -- -- 67
2019-11-21 22:00:00 8.3 8 Sudoeste 13 Sudoeste 0 -- -- 73
2019-11-21 21:00:00 8.1 7 Sudoeste 11 Sudoeste 0 -- -- 78
2019-11-21 20:00:00 8.6 4 Sur 9 Sudoeste 0 -- -- 75
2019-11-21 19:00:00 9.1 3 Sur 6 Sur 0 -- -- 72
2019-11-21 18:00:00 10.2 4 Sur 6 Sudeste 0 -- -- 70
2019-11-21 17:00:00 12.3 0 Calma 12 Norte 0 -- -- 60
2019-11-21 16:00:00 14.2 7 Norte 12 Noroeste 0 -- -- 53
2019-11-21 15:00:00 14.5 7 Norte 11 Noroeste 0 -- -- 55
2019-11-21 14:00:00 14.7 4 Norte 10 Norte 0 -- -- 52
2019-11-21 13:00:00 14.1 4 Nordeste 9 Norte 0 -- -- 57
2019-11-21 12:00:00 13.5 6 Sur 12 Sur 0 -- -- 76
2019-11-21 11:00:00 12.7 4 Sur 8 Sur 0 -- -- 81
2019-11-21 10:00:00 9.7 3 Norte 14 Sudoeste 0 -- -- 88
2019-11-21 09:00:00 7.6 8 Sur 14 Oeste 0 -- -- 93
2019-11-21 08:00:00 7.7 6 Sudoeste 14 Sudoeste 0.2 -- -- 93
2019-11-21 07:00:00 8.1 7 Sur 13 Sudoeste 0 -- -- 87
2019-11-21 06:00:00 8.3 6 Sudoeste 12 Sudoeste 0 -- -- 87
2019-11-21 05:00:00 8.2 8 Sudoeste 14 Sudoeste 0 -- -- 79
2019-11-21 04:00:00 8.5 6 Sudoeste 9 Sudoeste 0 -- -- 77
2019-11-21 03:00:00 8.4 7 Sudoeste 9 Sudoeste 0 -- -- 78
2019-11-21 02:00:00 8.6 8 Sudoeste 11 Oeste 0 -- -- 76
2019-11-21 01:00:00 9.2 3 Sur 12 Noroeste 0 -- -- 70
2019-11-21 00:00:00 8.3 7 Sur 13 Sudoeste 0 -- -- 76
2019-11-20 23:00:00 8.4 6 Sur 8 Sudeste 0 -- -- 79
2019-11-20 22:00:00 8.3 4 Sur 9 Sudoeste 0 -- -- 82
2019-11-20 21:00:00 8.6 7 Sudoeste 13 Sur 0 -- -- 80
2019-11-20 20:00:00 9.1 6 Sur 9 Sudeste 0 -- -- 79
2019-11-20 19:00:00 9 0 Calma 11 Sudoeste 0 -- -- 83
2019-11-20 18:00:00 10.2 3 Sur 5 Sur 0 -- -- 75
2019-11-20 17:00:00 11.7 0 Calma 6 Oeste 0 -- -- 71
2019-11-20 16:00:00 11.4 3 Noroeste 9 Oeste 0 -- -- 67
2019-11-20 15:00:00 12.5 3 Sur 20 Sudeste 0 -- -- 71
2019-11-20 14:00:00 12.4 13 Sur 24 Sur 0 -- -- 70
2019-11-20 13:00:00 12.4 15 Sur 22 Sudoeste 0 -- -- 71
2019-11-20 12:00:00 12.8 6 Sur 10 Sur -- -- -- 71
2019-11-20 11:00:00 10.8 6 Sudoeste 13 Sudoeste 0 -- -- 73
2019-11-20 10:00:00 9.5 4 Sudoeste 15 Sudoeste 0 -- -- 74
2019-11-20 09:00:00 7.8 8 Sudoeste 15 Oeste 0 -- -- 70
2019-11-20 08:00:00 7.7 6 Sudoeste 13 Sudoeste 0 -- -- 65
2019-11-20 07:00:00 6.8 9 Sudoeste 17 Sudoeste 0 -- -- 69
2019-11-20 06:00:00 6.8 4 Sudoeste 16 Sudoeste 0 -- -- 68
2019-11-20 05:00:00 6.1 6 Sudoeste 15 Sudoeste 0 -- -- 76
2019-11-20 04:00:00 5.8 8 Sudoeste 13 Sudoeste 0 -- -- 77
2019-11-20 03:00:00 6.7 8 Sudoeste 13 Sudoeste 0 -- -- 73
2019-11-20 02:00:00 7.2 6 Sudoeste 13 Sudoeste 0 -- -- 70
2019-11-20 01:00:00 7.5 7 Sudoeste 15 Sudoeste 0 -- -- 70
2019-11-20 00:00:00 7.4 9 Sudoeste 12 Sudoeste 0 -- -- 72
2019-11-19 23:00:00 7.8 8 Sudoeste 17 Oeste 0 -- -- 70
2019-11-19 22:00:00 8 10 Sudoeste 16 Sudoeste 0 -- -- 71
2019-11-19 21:00:00 8 9 Sudoeste 16 Sudoeste 0 -- -- 79
2019-11-19 20:00:00 8.4 11 Sudoeste 17 Sur 0 -- -- 86
2019-11-19 19:00:00 8.7 9 Sudoeste 12 Sudoeste 0 -- -- 86
2019-11-19 18:00:00 9.9 2 Sudeste 5 Sudeste 0 -- -- 77
2019-11-19 17:00:00 11 4 Este 5 Este 0 -- -- 75
2019-11-19 16:00:00 12.2 3 Sudeste 4 Oeste 0 -- -- 76
2019-11-19 15:00:00 12.6 2 Noroeste 14 Sudeste 0 -- -- 66
2019-11-19 14:00:00 11.9 10 Sudeste 17 Sudeste 0 -- -- 67
2019-11-19 13:00:00 10.7 10 Sudeste 22 Sudeste 0 -- -- 71
2019-11-19 12:00:00 10.1 13 Sudeste 20 Sudeste 0 -- -- 73
2019-11-19 11:00:00 9.3 8 Sur 14 Sudeste 0 -- -- 80
2019-11-19 10:00:00 7.2 8 Sur 15 Sur 0.2 -- -- 88
2019-11-19 09:00:00 5.7 10 Sudoeste 15 Sudoeste 0 -- -- 92
2019-11-19 08:00:00 4.8 8 Sudoeste 14 Sudoeste 0 -- -- 95
2019-11-19 07:00:00 5.2 5 Sudoeste 10 Sudoeste 0 -- -- 93
2019-11-19 06:00:00 4.5 6 Sur 15 Sudoeste 0 -- -- 94
2019-11-19 05:00:00 6.3 9 Sudoeste 17 Sudoeste 0 -- -- 93
2019-11-19 04:00:00 6.6 10 Sudoeste 15 Sudoeste 0 -- -- 94
2019-11-19 03:00:00 7.6 9 Sudoeste 17 Sudoeste 0 -- -- 94
2019-11-19 02:00:00 7.7 6 Sur 14 Sudoeste 0 -- -- 93
2019-11-19 01:00:00 7.9 9 Sudoeste 19 Sudoeste 0 -- -- 93
2019-11-19 00:00:00 7.7 9 Sudoeste 19 Sudoeste 0 -- -- 95
2019-11-18 23:00:00 7.9 8 Sudoeste 16 Sudoeste 0 -- -- 96
2019-11-18 22:00:00 7.8 7 Sudoeste 14 Sudoeste 0 -- -- 94
2019-11-18 21:00:00 7.7 9 Sudoeste 19 Sudoeste 0 -- -- 93
2019-11-18 20:00:00 7.7 10 Sudoeste 19 Sudoeste 0 -- -- 94
2019-11-18 19:00:00 7.3 7 Sudoeste 22 Sudoeste 0 -- -- 95
2019-11-18 18:00:00 7.4 11 Sudoeste 19 Sudoeste 0 -- -- 94
2019-11-18 17:00:00 8.3 9 Sudoeste 18 Oeste 0 -- -- 93
2019-11-18 16:00:00 8.9 10 Sudoeste 22 Sudoeste 0 -- -- 91
2019-11-18 15:00:00 10.9 6 Sudoeste 17 Oeste 0 -- -- 84
2019-11-18 14:00:00 10.2 9 Oeste 20 Oeste 0 -- -- 87
2019-11-18 13:00:00 10.4 6 Sudoeste 17 Sudoeste 0 -- -- 93
2019-11-18 12:00:00 8.7 9 Sudoeste 15 Sudoeste 0.2 -- -- 99
2019-11-18 11:00:00 8.1 5 Sudoeste 23 Norte 0.2 -- -- 97
2019-11-18 10:00:00 7.6 6 Sudoeste 21 Nordeste 1.2 -- -- 99
2019-11-18 09:00:00 7.5 5 Oeste 14 Nordeste 0 -- -- 99
2019-11-18 08:00:00 7.3 8 Sudoeste 14 Sudoeste 0.4 -- -- 99
2019-11-18 07:00:00 7.6 3 Norte 21 Noroeste 0.8 -- -- 99
2019-11-18 06:00:00 7.3 17 Norte 40 Norte 2.8 -- -- 99
2019-11-18 05:00:00 7.6 4 Oeste 18 Oeste 1.8 -- -- 98
2019-11-18 04:00:00 7.1 6 Noroeste 43 Norte -- -- -- 98
2019-11-18 03:00:00 8.2 5 Noroeste 14 Noroeste 0 -- -- 99
2019-11-18 02:00:00 7.9 6 Noroeste 19 Norte 1.2 -- -- 99
2019-11-18 01:00:00 7.4 4 Noroeste 14 Noroeste 0 -- -- 99
2019-11-18 00:00:00 7.1 4 Oeste 49 Noroeste 7 -- -- 98
2019-11-17 23:00:00 8.2 10 Oeste 35 Oeste 2 -- -- 97
2019-11-17 22:00:00 7.4 11 Sudoeste 33 Sudoeste 5.2 -- -- 97
2019-11-17 21:00:00 7.2 13 Sudoeste 34 Sudoeste 7.8 -- -- 97
2019-11-17 20:00:00 7.2 14 Oeste 40 Oeste 7.8 -- -- 95
2019-11-17 19:00:00 8 10 Oeste 33 Sudoeste 2.4 -- -- 91
2019-11-17 18:00:00 9.5 10 Oeste 41 Oeste 0.4 -- -- 81
2019-11-17 17:00:00 11.2 9 Oeste 35 Oeste 0 -- -- 70
2019-11-17 16:00:00 12.4 13 Oeste 41 Sudoeste 0 -- -- 66
2019-11-17 15:00:00 12.4 12 Oeste 31 Oeste 0 -- -- 71
2019-11-17 14:00:00 11.4 12 Oeste 55 Oeste 0 -- -- 84
2019-11-17 13:00:00 11.3 14 Oeste 38 Noroeste 0.4 -- -- 88
2019-11-17 12:00:00 12.7 11 Oeste 27 Oeste 0 -- -- 83
2019-11-17 11:00:00 10.3 13 Sudoeste 36 Sudoeste 0.8 -- -- 99
2019-11-17 10:00:00 8.7 9 Sudoeste 18 Sudoeste 0.2 -- -- 100
2019-11-17 09:00:00 7.7 11 Sudoeste 18 Sudoeste 2.8 -- -- 99
2019-11-17 08:00:00 7.8 9 Sudoeste 15 Sudoeste 1.2 -- -- 100
2019-11-17 07:00:00 7.4 7 Sur 10 Sudoeste 0.2 -- -- 99
2019-11-17 06:00:00 7.3 9 Sur 14 Sudoeste 0.4 -- -- 99
2019-11-17 05:00:00 7.2 9 Sudoeste 14 Sudoeste 2.4 -- -- 98
2019-11-17 04:00:00 7.2 7 Sudoeste 12 Sudoeste 0.4 -- -- 98
2019-11-17 03:00:00 7 5 Sur 15 Sudoeste 1 -- -- 96
2019-11-17 02:00:00 7.6 9 Sudoeste 15 Sudoeste 0.2 -- -- 88
2019-11-17 01:00:00 8.1 9 Sudoeste 16 Sudoeste 0 -- -- 80
2019-11-17 00:00:00 7.6 9 Sudoeste 13 Sudoeste 0 -- -- 85
2019-11-16 23:00:00 7.9 8 Sur 11 Sur 0 -- -- 83
2019-11-16 22:00:00 8.9 6 Sudoeste 23 Noroeste 0 -- -- 78
2019-11-16 21:00:00 8.8 5 Oeste 22 Noroeste 0 -- -- 76
2019-11-16 20:00:00 8.7 4 Sudoeste 21 Oeste 0 -- -- 73
2019-11-16 19:00:00 8.9 8 Oeste 26 Sudoeste 0 -- -- 75
2019-11-16 18:00:00 8.6 8 Oeste 31 Noroeste 0.2 -- -- 77
2019-11-16 17:00:00 9.6 14 Oeste 32 Oeste 0 -- -- 74
2019-11-16 16:00:00 9 11 Sudoeste 29 Oeste 0.4 -- -- 84
2019-11-16 15:00:00 8.6 13 Oeste 33 Oeste 1.2 -- -- 87
2019-11-16 14:00:00 9.9 15 Oeste 44 Noroeste 0 -- -- 80
2019-11-16 13:00:00 11 13 Oeste 38 Oeste 0.4 -- -- 74
2019-11-16 12:00:00 8.9 14 Oeste 42 Oeste 0.6 -- -- 83
2019-11-16 11:00:00 9.6 12 Oeste 33 Sudoeste 0 -- -- 80
2019-11-16 10:00:00 8.1 11 Sudoeste 33 Oeste 1 -- -- 86
2019-11-16 09:00:00 7.9 12 Oeste 31 Noroeste 0.6 -- -- 85
2019-11-16 08:00:00 8.2 11 Oeste 33 Noroeste 0 -- -- 78
2019-11-16 07:00:00 8.1 9 Sudoeste 25 Sudoeste 0 -- -- 77
2019-11-16 06:00:00 7.6 7 Sudoeste 22 Sudoeste 0 -- -- 82
2019-11-16 05:00:00 7.2 6 Sudoeste 21 Sudoeste 0 -- -- 87
2019-11-16 04:00:00 6 9 Sudoeste 18 Sudoeste 0 -- -- 96
2019-11-16 03:00:00 5.3 8 Sudoeste 15 Sudoeste 0.2 -- -- 97
2019-11-16 02:00:00 5.1 10 Sudoeste 17 Sudoeste 0.4 -- -- 96
2019-11-16 01:00:00 4.9 9 Sudoeste 19 Sudoeste 0 -- -- 99
2019-11-16 00:00:00 4.6 12 Sudoeste 21 Sudoeste 0.2 -- -- 100
2019-11-15 23:00:00 4 10 Sur 15 Sudeste 3.6 -- -- 100
2019-11-15 22:00:00 4.7 7 Sur 13 Sur 0.2 -- -- 100
2019-11-15 21:00:00 4.5 7 Sur 14 Sur 2 -- -- 100
2019-11-15 20:00:00 4.9 6 Este 22 Sudoeste 2.4 -- -- 99
2019-11-15 19:00:00 4.9 12 Sudoeste 19 Sur 2.6 -- -- 98
2019-11-15 18:00:00 4.6 3 Oeste 38 Norte 4.8 -- -- 95
2019-11-15 17:00:00 6.3 9 Sudoeste 26 Sur 0.6 -- -- 94
2019-11-15 16:00:00 6.4 9 Oeste 25 Oeste 1.8 -- -- 94
2019-11-15 15:00:00 6.3 7 Sudoeste 20 Oeste 2 -- -- 94
2019-11-15 14:00:00 6.3 7 Sudoeste 25 Sur 1.2 -- -- 92
2019-11-15 13:00:00 5.8 6 Sudoeste 28 Sudoeste 2.4 -- -- 94
2019-11-15 12:00:00 6.1 15 Sudoeste 31 Sur 0.4 -- -- 92
2019-11-15 11:00:00 7.1 13 Sudoeste 40 Noroeste 0.4 -- -- 92
2019-11-15 10:00:00 8.8 23 Norte 48 Noroeste 0.2 -- -- 83
2019-11-15 09:00:00 8.2 33 Noroeste 65 Noroeste 0.6 -- -- 88
2019-11-15 08:00:00 8.1 -- -- -- -- -- -- -- --
2019-11-15 07:00:00 8.6 36 Noroeste 75 Norte 0.2 -- -- 85
2019-11-15 06:00:00 8.6 19 Noroeste 57 Norte 1.4 -- -- 89
2019-11-15 05:00:00 6.9 9 Oeste 33 Oeste 4 -- -- 95
2019-11-15 04:00:00 7.9 10 Sudoeste 39 Noroeste 0.6 -- -- 89
2019-11-15 03:00:00 7.1 14 Oeste 33 Oeste 2.2 -- -- 94
2019-11-15 02:00:00 6.8 13 Sudoeste 30 Sudoeste 1.6 -- -- 91
2019-11-15 01:00:00 -- -- -- -- -- -- -- -- --
2019-11-15 00:00:00 -- -- -- -- -- -- -- -- --